sensor_id;sensor_type;location;lat;lon;timestamp;pressure;altitude;pressure_sealevel;temperature;humidity
79118;BME280;68523;51.336;-0.846;2023-05-19T00:00:01;101660.0;;;11.43;87.78
79118;BME280;68523;51.336;-0.846;2023-05-19T00:03:00;101660.0;;;11.46;87.56
79118;BME280;68523;51.336;-0.846;2023-05-19T00:06:01;101660.0;;;11.36;87.69
79118;BME280;68523;51.336;-0.846;2023-05-19T00:09:02;101660.0;;;11.35;87.68
79118;BME280;68523;51.336;-0.846;2023-05-19T00:12:01;101650.0;;;11.22;88.55
79118;BME280;68523;51.336;-0.846;2023-05-19T00:15:01;101650.0;;;11.26;87.95
79118;BME280;68523;51.336;-0.846;2023-05-19T00:18:00;101650.0;;;11.31;87.58
79118;BME280;68523;51.336;-0.846;2023-05-19T00:21:00;101640.0;;;11.22;87.91
79118;BME280;68523;51.336;-0.846;2023-05-19T00:24:00;101640.0;;;11.15;87.98
79118;BME280;68523;51.336;-0.846;2023-05-19T00:27:00;101640.0;;;11.21;87.68
79118;BME280;68523;51.336;-0.846;2023-05-19T00:30:00;101630.0;;;11.22;87.44
79118;BME280;68523;51.336;-0.846;2023-05-19T00:33:00;101640.0;;;11.18;87.59
79118;BME280;68523;51.336;-0.846;2023-05-19T00:36:01;101640.0;;;11.13;87.52
79118;BME280;68523;51.336;-0.846;2023-05-19T00:39:00;101650.0;;;10.97;88.27
79118;BME280;68523;51.336;-0.846;2023-05-19T00:42:00;101640.0;;;10.93;88.66
79118;BME280;68523;51.336;-0.846;2023-05-19T00:45:00;101640.0;;;10.81;89.22
79118;BME280;68523;51.336;-0.846;2023-05-19T00:48:00;101640.0;;;10.70;89.64
79118;BME280;68523;51.336;-0.846;2023-05-19T00:51:02;101640.0;;;10.63;89.89
79118;BME280;68523;51.336;-0.846;2023-05-19T00:54:00;101640.0;;;10.53;90.45
79118;BME280;68523;51.336;-0.846;2023-05-19T00:57:00;101640.0;;;10.51;90.56
79118;BME280;68523;51.336;-0.846;2023-05-19T01:00:00;101640.0;;;10.43;90.60
79118;BME280;68523;51.336;-0.846;2023-05-19T01:03:01;101640.0;;;10.37;90.95
79118;BME280;68523;51.336;-0.846;2023-05-19T01:06:00;101640.0;;;10.31;91.12
79118;BME280;68523;51.336;-0.846;2023-05-19T01:09:00;101640.0;;;10.31;91.42
79118;BME280;68523;51.336;-0.846;2023-05-19T01:12:00;101630.0;;;10.27;91.30
79118;BME280;68523;51.336;-0.846;2023-05-19T01:15:01;101640.0;;;10.29;91.38
79118;BME280;68523;51.336;-0.846;2023-05-19T01:18:04;101640.0;;;10.54;91.13
79118;BME280;68523;51.336;-0.846;2023-05-19T01:21:17;101640.0;;;10.64;90.63
79118;BME280;68523;51.336;-0.846;2023-05-19T01:24:12;101640.0;;;10.79;90.30
79118;BME280;68523;51.336;-0.846;2023-05-19T01:27:16;101640.0;;;10.82;89.97
79118;BME280;68523;51.336;-0.846;2023-05-19T01:30:14;101640.0;;;10.68;90.75
79118;BME280;68523;51.336;-0.846;2023-05-19T01:33:02;101630.0;;;10.54;91.57
79118;BME280;68523;51.336;-0.846;2023-05-19T01:36:02;101630.0;;;10.58;91.48
79118;BME280;68523;51.336;-0.846;2023-05-19T01:39:01;101640.0;;;10.57;91.54
79118;BME280;68523;51.336;-0.846;2023-05-19T01:42:01;101640.0;;;10.54;91.33
79118;BME280;68523;51.336;-0.846;2023-05-19T01:45:01;101630.0;;;10.54;91.61
79118;BME280;68523;51.336;-0.846;2023-05-19T01:48:02;101630.0;;;10.55;91.71
79118;BME280;68523;51.336;-0.846;2023-05-19T01:51:00;101630.0;;;10.52;92.16
79118;BME280;68523;51.336;-0.846;2023-05-19T01:54:00;101630.0;;;10.55;91.97
79118;BME280;68523;51.336;-0.846;2023-05-19T01:57:11;101630.0;;;10.55;91.69
79118;BME280;68523;51.336;-0.846;2023-05-19T02:00:07;101630.0;;;10.52;91.92
79118;BME280;68523;51.336;-0.846;2023-05-19T02:03:10;101630.0;;;10.56;91.80
79118;BME280;68523;51.336;-0.846;2023-05-19T02:06:10;101630.0;;;10.59;91.79
79118;BME280;68523;51.336;-0.846;2023-05-19T02:09:04;101630.0;;;10.59;91.66
79118;BME280;68523;51.336;-0.846;2023-05-19T02:12:05;101630.0;;;10.58;91.68
79118;BME280;68523;51.336;-0.846;2023-05-19T02:15:04;101630.0;;;10.56;91.86
79118;BME280;68523;51.336;-0.846;2023-05-19T02:18:01;101630.0;;;10.53;91.96
79118;BME280;68523;51.336;-0.846;2023-05-19T02:21:00;101630.0;;;10.49;92.05
79118;BME280;68523;51.336;-0.846;2023-05-19T02:24:00;101620.0;;;10.51;92.04
79118;BME280;68523;51.336;-0.846;2023-05-19T02:27:00;101620.0;;;10.52;91.91
79118;BME280;68523;51.336;-0.846;2023-05-19T02:30:00;101630.0;;;10.51;91.82
79118;BME280;68523;51.336;-0.846;2023-05-19T02:33:00;101630.0;;;10.43;92.24
79118;BME280;68523;51.336;-0.846;2023-05-19T02:36:00;101630.0;;;10.48;92.17
79118;BME280;68523;51.336;-0.846;2023-05-19T02:39:00;101630.0;;;10.49;92.08
79118;BME280;68523;51.336;-0.846;2023-05-19T02:42:00;101620.0;;;10.45;91.92
79118;BME280;68523;51.336;-0.846;2023-05-19T02:45:00;101620.0;;;10.37;92.02
79118;BME280;68523;51.336;-0.846;2023-05-19T02:48:00;101620.0;;;10.39;91.80
79118;BME280;68523;51.336;-0.846;2023-05-19T02:51:00;101620.0;;;10.33;91.92
79118;BME280;68523;51.336;-0.846;2023-05-19T02:54:00;101620.0;;;10.31;92.10
79118;BME280;68523;51.336;-0.846;2023-05-19T02:57:00;101620.0;;;10.26;92.26
79118;BME280;68523;51.336;-0.846;2023-05-19T03:00:00;101620.0;;;10.20;92.35
79118;BME280;68523;51.336;-0.846;2023-05-19T03:03:00;101620.0;;;10.19;92.50
79118;BME280;68523;51.336;-0.846;2023-05-19T03:06:00;101620.0;;;10.14;92.77
79118;BME280;68523;51.336;-0.846;2023-05-19T03:09:00;101620.0;;;10.10;92.82
79118;BME280;68523;51.336;-0.846;2023-05-19T03:12:00;101620.0;;;10.09;92.75
79118;BME280;68523;51.336;-0.846;2023-05-19T03:15:00;101610.0;;;10.07;92.70
79118;BME280;68523;51.336;-0.846;2023-05-19T03:18:00;101610.0;;;10.00;92.78
79118;BME280;68523;51.336;-0.846;2023-05-19T03:21:00;101610.0;;;10.00;92.43
79118;BME280;68523;51.336;-0.846;2023-05-19T03:24:00;101610.0;;;9.97;92.27
79118;BME280;68523;51.336;-0.846;2023-05-19T03:27:00;101610.0;;;9.93;92.54
79118;BME280;68523;51.336;-0.846;2023-05-19T03:30:00;101610.0;;;9.92;92.32
79118;BME280;68523;51.336;-0.846;2023-05-19T03:33:00;101610.0;;;9.89;92.49
79118;BME280;68523;51.336;-0.846;2023-05-19T03:36:00;101610.0;;;9.85;92.50
79118;BME280;68523;51.336;-0.846;2023-05-19T03:39:00;101610.0;;;9.83;92.78
79118;BME280;68523;51.336;-0.846;2023-05-19T03:42:00;101610.0;;;9.76;92.83
79118;BME280;68523;51.336;-0.846;2023-05-19T03:45:00;101610.0;;;9.78;92.63
79118;BME280;68523;51.336;-0.846;2023-05-19T03:48:00;101610.0;;;9.76;92.69
79118;BME280;68523;51.336;-0.846;2023-05-19T03:51:00;101610.0;;;9.72;92.72
79118;BME280;68523;51.336;-0.846;2023-05-19T03:54:00;101610.0;;;9.74;92.73
79118;BME280;68523;51.336;-0.846;2023-05-19T03:57:00;101610.0;;;9.76;92.50
79118;BME280;68523;51.336;-0.846;2023-05-19T04:00:01;101610.0;;;9.80;92.54
79118;BME280;68523;51.336;-0.846;2023-05-19T04:03:00;101610.0;;;10.02;92.06
79118;BME280;68523;51.336;-0.846;2023-05-19T04:06:00;101620.0;;;10.16;91.52
79118;BME280;68523;51.336;-0.846;2023-05-19T04:09:01;101620.0;;;10.27;91.00
79118;BME280;68523;51.336;-0.846;2023-05-19T04:12:00;101630.0;;;10.33;90.54
79118;BME280;68523;51.336;-0.846;2023-05-19T04:15:00;101630.0;;;10.27;90.73
79118;BME280;68523;51.336;-0.846;2023-05-19T04:18:00;101620.0;;;10.18;91.48
79118;BME280;68523;51.336;-0.846;2023-05-19T04:24:00;101620.0;;;10.17;91.55
79118;BME280;68523;51.336;-0.846;2023-05-19T04:27:00;101620.0;;;10.21;91.71
79118;BME280;68523;51.336;-0.846;2023-05-19T04:30:00;101620.0;;;10.15;92.17
79118;BME280;68523;51.336;-0.846;2023-05-19T04:33:00;101620.0;;;10.04;92.24
79118;BME280;68523;51.336;-0.846;2023-05-19T04:36:00;101620.0;;;10.16;91.70
79118;BME280;68523;51.336;-0.846;2023-05-19T04:39:00;101620.0;;;10.12;92.02
79118;BME280;68523;51.336;-0.846;2023-05-19T04:42:00;101610.0;;;10.06;92.29
79118;BME280;68523;51.336;-0.846;2023-05-19T04:45:00;101610.0;;;10.17;91.86
79118;BME280;68523;51.336;-0.846;2023-05-19T04:48:00;101610.0;;;10.20;91.41
79118;BME280;68523;51.336;-0.846;2023-05-19T04:51:00;101620.0;;;10.23;91.80
79118;BME280;68523;51.336;-0.846;2023-05-19T04:54:00;101610.0;;;10.26;91.74
79118;BME280;68523;51.336;-0.846;2023-05-19T04:57:00;101610.0;;;10.31;91.79
79118;BME280;68523;51.336;-0.846;2023-05-19T05:00:00;101610.0;;;10.39;91.28
79118;BME280;68523;51.336;-0.846;2023-05-19T05:03:00;101610.0;;;10.48;90.90
79118;BME280;68523;51.336;-0.846;2023-05-19T05:06:00;101620.0;;;10.39;91.68
79118;BME280;68523;51.336;-0.846;2023-05-19T05:09:00;101620.0;;;10.51;91.38
79118;BME280;68523;51.336;-0.846;2023-05-19T05:12:01;101620.0;;;10.59;91.06
79118;BME280;68523;51.336;-0.846;2023-05-19T05:15:01;101610.0;;;10.63;90.79
79118;BME280;68523;51.336;-0.846;2023-05-19T05:18:01;101610.0;;;10.65;91.11
79118;BME280;68523;51.336;-0.846;2023-05-19T05:21:01;101610.0;;;10.68;91.10
79118;BME280;68523;51.336;-0.846;2023-05-19T05:24:01;101620.0;;;10.76;90.82
79118;BME280;68523;51.336;-0.846;2023-05-19T05:27:00;101620.0;;;10.75;90.00
79118;BME280;68523;51.336;-0.846;2023-05-19T05:30:00;101620.0;;;10.75;89.52
79118;BME280;68523;51.336;-0.846;2023-05-19T05:33:01;101610.0;;;10.76;90.71
79118;BME280;68523;51.336;-0.846;2023-05-19T05:36:00;101610.0;;;10.77;90.00
79118;BME280;68523;51.336;-0.846;2023-05-19T05:39:00;101610.0;;;10.74;90.11
79118;BME280;68523;51.336;-0.846;2023-05-19T05:42:00;101610.0;;;10.76;89.82
79118;BME280;68523;51.336;-0.846;2023-05-19T05:45:00;101610.0;;;10.75;89.92
79118;BME280;68523;51.336;-0.846;2023-05-19T05:48:01;101600.0;;;10.79;89.42
79118;BME280;68523;51.336;-0.846;2023-05-19T05:51:01;101600.0;;;10.90;89.41
79118;BME280;68523;51.336;-0.846;2023-05-19T05:54:01;101600.0;;;10.96;88.64
79118;BME280;68523;51.336;-0.846;2023-05-19T05:57:01;101590.0;;;11.06;87.95
79118;BME280;68523;51.336;-0.846;2023-05-19T06:00:00;101590.0;;;11.19;87.54
79118;BME280;68523;51.336;-0.846;2023-05-19T06:03:00;101590.0;;;11.35;86.78
79118;BME280;68523;51.336;-0.846;2023-05-19T06:06:00;101600.0;;;11.72;85.57
79118;BME280;68523;51.336;-0.846;2023-05-19T06:09:00;101590.0;;;11.98;84.33
79118;BME280;68523;51.336;-0.846;2023-05-19T06:12:00;101600.0;;;12.07;83.72
79118;BME280;68523;51.336;-0.846;2023-05-19T06:15:01;101600.0;;;12.28;82.16
79118;BME280;68523;51.336;-0.846;2023-05-19T06:18:00;101600.0;;;12.36;80.21
79118;BME280;68523;51.336;-0.846;2023-05-19T06:21:00;101600.0;;;12.48;80.07
79118;BME280;68523;51.336;-0.846;2023-05-19T06:24:00;101590.0;;;12.35;80.18
79118;BME280;68523;51.336;-0.846;2023-05-19T06:27:00;101590.0;;;12.37;79.58
79118;BME280;68523;51.336;-0.846;2023-05-19T06:30:01;101590.0;;;12.53;79.60
79118;BME280;68523;51.336;-0.846;2023-05-19T06:33:00;101600.0;;;12.59;80.09
79118;BME280;68523;51.336;-0.846;2023-05-19T06:36:00;101600.0;;;12.58;78.91
79118;BME280;68523;51.336;-0.846;2023-05-19T06:39:00;101610.0;;;12.61;80.23
79118;BME280;68523;51.336;-0.846;2023-05-19T06:42:00;101610.0;;;12.70;80.41
79118;BME280;68523;51.336;-0.846;2023-05-19T06:45:00;101610.0;;;12.86;78.63
79118;BME280;68523;51.336;-0.846;2023-05-19T06:48:01;101610.0;;;12.74;78.33
79118;BME280;68523;51.336;-0.846;2023-05-19T06:51:00;101610.0;;;12.77;78.64
79118;BME280;68523;51.336;-0.846;2023-05-19T06:54:00;101610.0;;;12.80;78.61
79118;BME280;68523;51.336;-0.846;2023-05-19T06:57:00;101610.0;;;13.02;79.43
79118;BME280;68523;51.336;-0.846;2023-05-19T07:00:00;101610.0;;;12.74;78.36
79118;BME280;68523;51.336;-0.846;2023-05-19T07:03:00;101610.0;;;13.04;78.63
79118;BME280;68523;51.336;-0.846;2023-05-19T07:06:00;101620.0;;;13.37;77.53
79118;BME280;68523;51.336;-0.846;2023-05-19T07:09:00;101620.0;;;13.16;77.67
79118;BME280;68523;51.336;-0.846;2023-05-19T07:12:00;101610.0;;;13.52;76.00
79118;BME280;68523;51.336;-0.846;2023-05-19T07:15:00;101610.0;;;14.14;75.88
79118;BME280;68523;51.336;-0.846;2023-05-19T07:18:00;101620.0;;;14.38;73.35
79118;BME280;68523;51.336;-0.846;2023-05-19T07:21:00;101620.0;;;14.61;70.50
79118;BME280;68523;51.336;-0.846;2023-05-19T07:24:00;101620.0;;;14.78;70.83
79118;BME280;68523;51.336;-0.846;2023-05-19T07:27:00;101630.0;;;15.26;68.20
79118;BME280;68523;51.336;-0.846;2023-05-19T07:30:00;101630.0;;;15.32;67.56
79118;BME280;68523;51.336;-0.846;2023-05-19T07:33:00;101630.0;;;15.79;65.51
79118;BME280;68523;51.336;-0.846;2023-05-19T07:36:00;101630.0;;;15.22;69.01
79118;BME280;68523;51.336;-0.846;2023-05-19T07:39:00;101640.0;;;16.25;64.63
79118;BME280;68523;51.336;-0.846;2023-05-19T07:42:00;101640.0;;;16.56;61.66
79118;BME280;68523;51.336;-0.846;2023-05-19T07:45:00;101640.0;;;16.90;60.77
79118;BME280;68523;51.336;-0.846;2023-05-19T07:48:00;101630.0;;;15.93;64.94
79118;BME280;68523;51.336;-0.846;2023-05-19T07:51:01;101630.0;;;16.65;66.47
79118;BME280;68523;51.336;-0.846;2023-05-19T07:54:00;101640.0;;;16.30;65.84
79118;BME280;68523;51.336;-0.846;2023-05-19T07:57:00;101640.0;;;16.31;65.76
79118;BME280;68523;51.336;-0.846;2023-05-19T08:00:00;101650.0;;;15.23;68.54
79118;BME280;68523;51.336;-0.846;2023-05-19T08:03:01;101650.0;;;14.71;70.67
79118;BME280;68523;51.336;-0.846;2023-05-19T08:06:00;101650.0;;;14.65;70.66
79118;BME280;68523;51.336;-0.846;2023-05-19T08:09:00;101650.0;;;14.67;70.06
79118;BME280;68523;51.336;-0.846;2023-05-19T08:12:00;101650.0;;;14.81;68.41
79118;BME280;68523;51.336;-0.846;2023-05-19T08:15:00;101650.0;;;14.66;68.37
79118;BME280;68523;51.336;-0.846;2023-05-19T08:18:00;101650.0;;;14.86;68.16
79118;BME280;68523;51.336;-0.846;2023-05-19T08:21:00;101650.0;;;14.99;67.74
79118;BME280;68523;51.336;-0.846;2023-05-19T08:24:01;101650.0;;;15.42;68.91
79118;BME280;68523;51.336;-0.846;2023-05-19T08:27:00;101640.0;;;15.88;65.52
79118;BME280;68523;51.336;-0.846;2023-05-19T08:30:00;101640.0;;;15.71;66.96
79118;BME280;68523;51.336;-0.846;2023-05-19T08:33:00;101640.0;;;16.07;66.68
79118;BME280;68523;51.336;-0.846;2023-05-19T08:36:00;101640.0;;;16.20;64.83
79118;BME280;68523;51.336;-0.846;2023-05-19T08:39:00;101640.0;;;15.86;65.89
79118;BME280;68523;51.336;-0.846;2023-05-19T08:42:00;101640.0;;;17.21;61.02
79118;BME280;68523;51.336;-0.846;2023-05-19T08:45:01;101630.0;;;17.18;62.33
79118;BME280;68523;51.336;-0.846;2023-05-19T08:48:01;101640.0;;;17.04;64.52
79118;BME280;68523;51.336;-0.846;2023-05-19T08:51:06;101640.0;;;16.58;64.18
79118;BME280;68523;51.336;-0.846;2023-05-19T08:54:11;101640.0;;;16.06;65.13
79118;BME280;68523;51.336;-0.846;2023-05-19T08:57:01;101640.0;;;16.03;65.28
79118;BME280;68523;51.336;-0.846;2023-05-19T09:00:01;101640.0;;;15.63;68.46
79118;BME280;68523;51.336;-0.846;2023-05-19T09:03:01;101640.0;;;15.92;65.91
79118;BME280;68523;51.336;-0.846;2023-05-19T09:06:00;101630.0;;;16.37;63.83
79118;BME280;68523;51.336;-0.846;2023-05-19T09:09:00;101630.0;;;16.56;63.75
79118;BME280;68523;51.336;-0.846;2023-05-19T09:12:00;101620.0;;;16.38;61.60
79118;BME280;68523;51.336;-0.846;2023-05-19T09:15:01;101620.0;;;16.09;61.61
79118;BME280;68523;51.336;-0.846;2023-05-19T09:18:05;101610.0;;;15.90;62.06
79118;BME280;68523;51.336;-0.846;2023-05-19T09:21:00;101610.0;;;16.54;61.10
79118;BME280;68523;51.336;-0.846;2023-05-19T09:24:03;101610.0;;;16.36;62.84
79118;BME280;68523;51.336;-0.846;2023-05-19T09:27:00;101600.0;;;16.68;59.22
79118;BME280;68523;51.336;-0.846;2023-05-19T09:30:06;101600.0;;;16.66;61.26
79118;BME280;68523;51.336;-0.846;2023-05-19T09:33:00;101600.0;;;16.68;60.14
79118;BME280;68523;51.336;-0.846;2023-05-19T09:36:01;101610.0;;;16.75;59.06
79118;BME280;68523;51.336;-0.846;2023-05-19T09:39:00;101610.0;;;16.64;60.81
79118;BME280;68523;51.336;-0.846;2023-05-19T09:42:03;101610.0;;;16.58;60.76
79118;BME280;68523;51.336;-0.846;2023-05-19T09:45:01;101610.0;;;16.71;60.46
79118;BME280;68523;51.336;-0.846;2023-05-19T09:48:02;101610.0;;;16.94;60.62
79118;BME280;68523;51.336;-0.846;2023-05-19T09:51:01;101610.0;;;17.11;60.62
79118;BME280;68523;51.336;-0.846;2023-05-19T09:54:00;101620.0;;;17.10;60.92
79118;BME280;68523;51.336;-0.846;2023-05-19T09:57:01;101620.0;;;17.19;61.79
79118;BME280;68523;51.336;-0.846;2023-05-19T10:00:02;101630.0;;;17.19;60.16
79118;BME280;68523;51.336;-0.846;2023-05-19T10:03:03;101630.0;;;17.20;60.82
79118;BME280;68523;51.336;-0.846;2023-05-19T10:06:01;101630.0;;;17.62;58.04
79118;BME280;68523;51.336;-0.846;2023-05-19T10:09:01;101630.0;;;18.16;58.12
79118;BME280;68523;51.336;-0.846;2023-05-19T10:12:01;101630.0;;;18.94;54.72
79118;BME280;68523;51.336;-0.846;2023-05-19T10:15:01;101620.0;;;18.48;55.10
79118;BME280;68523;51.336;-0.846;2023-05-19T10:18:01;101620.0;;;17.62;56.29
79118;BME280;68523;51.336;-0.846;2023-05-19T10:21:01;101620.0;;;17.64;57.06
79118;BME280;68523;51.336;-0.846;2023-05-19T10:24:00;101620.0;;;17.76;54.12
79118;BME280;68523;51.336;-0.846;2023-05-19T10:27:04;101620.0;;;17.76;57.70
79118;BME280;68523;51.336;-0.846;2023-05-19T10:30:06;101630.0;;;17.56;56.68
79118;BME280;68523;51.336;-0.846;2023-05-19T10:33:02;101630.0;;;17.85;56.44
79118;BME280;68523;51.336;-0.846;2023-05-19T10:36:14;101630.0;;;17.92;57.09
79118;BME280;68523;51.336;-0.846;2023-05-19T10:39:03;101620.0;;;17.61;56.72
79118;BME280;68523;51.336;-0.846;2023-05-19T10:42:05;101620.0;;;17.50;57.14
79118;BME280;68523;51.336;-0.846;2023-05-19T10:45:08;101620.0;;;17.97;55.98
79118;BME280;68523;51.336;-0.846;2023-05-19T10:48:00;101610.0;;;17.99;57.43
79118;BME280;68523;51.336;-0.846;2023-05-19T10:51:01;101610.0;;;17.79;58.64
79118;BME280;68523;51.336;-0.846;2023-05-19T10:54:01;101610.0;;;18.13;58.31
79118;BME280;68523;51.336;-0.846;2023-05-19T10:57:00;101610.0;;;18.12;55.92
79118;BME280;68523;51.336;-0.846;2023-05-19T11:00:03;101600.0;;;18.08;54.84
79118;BME280;68523;51.336;-0.846;2023-05-19T11:03:11;101590.0;;;18.35;53.78
79118;BME280;68523;51.336;-0.846;2023-05-19T11:06:18;101590.0;;;18.24;56.42
79118;BME280;68523;51.336;-0.846;2023-05-19T11:09:01;101580.0;;;18.72;52.94
79118;BME280;68523;51.336;-0.846;2023-05-19T11:12:02;101580.0;;;18.29;54.83
79118;BME280;68523;51.336;-0.846;2023-05-19T11:15:02;101580.0;;;18.64;55.65
79118;BME280;68523;51.336;-0.846;2023-05-19T11:18:01;101580.0;;;18.46;55.02
79118;BME280;68523;51.336;-0.846;2023-05-19T11:21:00;101570.0;;;19.18;55.00
79118;BME280;68523;51.336;-0.846;2023-05-19T11:24:00;101570.0;;;19.99;52.11
79118;BME280;68523;51.336;-0.846;2023-05-19T11:30:07;101570.0;;;19.70;52.64
79118;BME280;68523;51.336;-0.846;2023-05-19T11:33:00;101570.0;;;19.30;52.57
79118;BME280;68523;51.336;-0.846;2023-05-19T11:36:01;101570.0;;;18.92;52.61
79118;BME280;68523;51.336;-0.846;2023-05-19T11:39:01;101570.0;;;18.92;52.85
79118;BME280;68523;51.336;-0.846;2023-05-19T11:42:00;101570.0;;;18.30;53.64
79118;BME280;68523;51.336;-0.846;2023-05-19T11:45:01;101560.0;;;18.39;55.61
79118;BME280;68523;51.336;-0.846;2023-05-19T11:48:01;101560.0;;;17.99;55.63
79118;BME280;68523;51.336;-0.846;2023-05-19T11:51:00;101560.0;;;17.95;57.54
79118;BME280;68523;51.336;-0.846;2023-05-19T11:54:01;101550.0;;;17.92;55.95
79118;BME280;68523;51.336;-0.846;2023-05-19T11:57:01;101550.0;;;18.00;59.34
79118;BME280;68523;51.336;-0.846;2023-05-19T12:00:01;101550.0;;;17.89;56.92
79118;BME280;68523;51.336;-0.846;2023-05-19T12:03:00;101550.0;;;17.83;57.90
79118;BME280;68523;51.336;-0.846;2023-05-19T12:06:02;101540.0;;;17.44;56.29
79118;BME280;68523;51.336;-0.846;2023-05-19T12:09:00;101540.0;;;17.71;57.47
79118;BME280;68523;51.336;-0.846;2023-05-19T12:12:01;101540.0;;;17.81;58.64
79118;BME280;68523;51.336;-0.846;2023-05-19T12:15:01;101540.0;;;17.95;57.98
79118;BME280;68523;51.336;-0.846;2023-05-19T12:18:01;101540.0;;;18.22;55.51
79118;BME280;68523;51.336;-0.846;2023-05-19T12:21:00;101530.0;;;18.42;55.27
79118;BME280;68523;51.336;-0.846;2023-05-19T12:24:01;101540.0;;;19.36;53.37
79118;BME280;68523;51.336;-0.846;2023-05-19T12:27:05;101540.0;;;19.68;50.98
79118;BME280;68523;51.336;-0.846;2023-05-19T12:30:02;101540.0;;;19.32;51.76
79118;BME280;68523;51.336;-0.846;2023-05-19T12:33:01;101550.0;;;18.95;51.13
79118;BME280;68523;51.336;-0.846;2023-05-19T12:36:00;101550.0;;;18.97;47.94
79118;BME280;68523;51.336;-0.846;2023-05-19T12:39:00;101550.0;;;20.27;48.15
79118;BME280;68523;51.336;-0.846;2023-05-19T12:42:01;101550.0;;;19.43;49.43
79118;BME280;68523;51.336;-0.846;2023-05-19T12:45:02;101550.0;;;19.44;49.87
79118;BME280;68523;51.336;-0.846;2023-05-19T12:48:02;101550.0;;;19.41;52.28
79118;BME280;68523;51.336;-0.846;2023-05-19T12:51:00;101550.0;;;19.69;49.57
79118;BME280;68523;51.336;-0.846;2023-05-19T12:54:01;101550.0;;;19.58;49.84
79118;BME280;68523;51.336;-0.846;2023-05-19T12:57:05;101550.0;;;19.89;50.11
79118;BME280;68523;51.336;-0.846;2023-05-19T13:00:02;101550.0;;;20.35;48.18
79118;BME280;68523;51.336;-0.846;2023-05-19T13:03:02;101560.0;;;20.42;44.93
79118;BME280;68523;51.336;-0.846;2023-05-19T13:06:00;101560.0;;;20.58;46.23
79118;BME280;68523;51.336;-0.846;2023-05-19T13:09:00;101560.0;;;21.44;44.09
79118;BME280;68523;51.336;-0.846;2023-05-19T13:12:00;101550.0;;;22.34;44.86
79118;BME280;68523;51.336;-0.846;2023-05-19T13:15:00;101550.0;;;22.48;43.66
79118;BME280;68523;51.336;-0.846;2023-05-19T13:18:01;101560.0;;;22.22;42.32
79118;BME280;68523;51.336;-0.846;2023-05-19T13:21:00;101550.0;;;22.16;40.50
79118;BME280;68523;51.336;-0.846;2023-05-19T13:24:00;101550.0;;;22.70;41.73
79118;BME280;68523;51.336;-0.846;2023-05-19T13:27:00;101550.0;;;21.90;44.23
79118;BME280;68523;51.336;-0.846;2023-05-19T13:30:00;101550.0;;;20.31;45.82
79118;BME280;68523;51.336;-0.846;2023-05-19T13:33:00;101560.0;;;19.14;46.69
79118;BME280;68523;51.336;-0.846;2023-05-19T13:36:00;101560.0;;;19.36;46.94
79118;BME280;68523;51.336;-0.846;2023-05-19T13:39:00;101560.0;;;18.48;48.43
79118;BME280;68523;51.336;-0.846;2023-05-19T13:42:00;101560.0;;;18.32;48.62
79118;BME280;68523;51.336;-0.846;2023-05-19T13:45:01;101560.0;;;18.45;48.80
79118;BME280;68523;51.336;-0.846;2023-05-19T13:48:00;101560.0;;;18.84;48.92
79118;BME280;68523;51.336;-0.846;2023-05-19T13:51:00;101560.0;;;18.34;48.85
79118;BME280;68523;51.336;-0.846;2023-05-19T13:54:00;101560.0;;;18.44;49.49
79118;BME280;68523;51.336;-0.846;2023-05-19T13:57:00;101560.0;;;18.49;48.39
79118;BME280;68523;51.336;-0.846;2023-05-19T14:00:00;101550.0;;;18.71;50.18
79118;BME280;68523;51.336;-0.846;2023-05-19T14:03:00;101550.0;;;18.37;50.07
79118;BME280;68523;51.336;-0.846;2023-05-19T14:06:00;101550.0;;;18.19;52.90
79118;BME280;68523;51.336;-0.846;2023-05-19T14:09:00;101560.0;;;17.84;51.18
79118;BME280;68523;51.336;-0.846;2023-05-19T14:12:00;101560.0;;;17.57;53.05
79118;BME280;68523;51.336;-0.846;2023-05-19T14:15:00;101560.0;;;17.42;51.87
79118;BME280;68523;51.336;-0.846;2023-05-19T14:18:00;101560.0;;;17.10;53.17
79118;BME280;68523;51.336;-0.846;2023-05-19T14:21:00;101560.0;;;17.04;54.43
79118;BME280;68523;51.336;-0.846;2023-05-19T14:24:00;101560.0;;;17.00;54.31
79118;BME280;68523;51.336;-0.846;2023-05-19T14:27:00;101560.0;;;16.92;54.83
79118;BME280;68523;51.336;-0.846;2023-05-19T14:30:00;101560.0;;;16.92;56.19
79118;BME280;68523;51.336;-0.846;2023-05-19T14:33:00;101560.0;;;16.27;64.08
79118;BME280;68523;51.336;-0.846;2023-05-19T14:36:00;101560.0;;;15.98;66.78
79118;BME280;68523;51.336;-0.846;2023-05-19T14:39:00;101560.0;;;15.95;66.37
79118;BME280;68523;51.336;-0.846;2023-05-19T14:42:00;101550.0;;;15.93;66.54
79118;BME280;68523;51.336;-0.846;2023-05-19T14:45:00;101550.0;;;16.02;68.29
79118;BME280;68523;51.336;-0.846;2023-05-19T14:48:00;101550.0;;;16.28;67.71
79118;BME280;68523;51.336;-0.846;2023-05-19T14:51:00;101550.0;;;16.28;67.32
79118;BME280;68523;51.336;-0.846;2023-05-19T14:54:00;101540.0;;;16.39;66.93
79118;BME280;68523;51.336;-0.846;2023-05-19T14:57:00;101540.0;;;17.03;65.89
79118;BME280;68523;51.336;-0.846;2023-05-19T15:00:01;101540.0;;;16.71;64.52
79118;BME280;68523;51.336;-0.846;2023-05-19T15:03:00;101540.0;;;16.47;64.15
79118;BME280;68523;51.336;-0.846;2023-05-19T15:06:00;101540.0;;;16.97;63.79
79118;BME280;68523;51.336;-0.846;2023-05-19T15:09:00;101540.0;;;16.95;64.04
79118;BME280;68523;51.336;-0.846;2023-05-19T15:12:00;101540.0;;;16.71;64.12
79118;BME280;68523;51.336;-0.846;2023-05-19T15:15:00;101530.0;;;17.02;64.98
79118;BME280;68523;51.336;-0.846;2023-05-19T15:18:00;101530.0;;;17.03;62.75
79118;BME280;68523;51.336;-0.846;2023-05-19T15:21:00;101530.0;;;17.09;62.28
79118;BME280;68523;51.336;-0.846;2023-05-19T15:24:00;101530.0;;;17.13;61.89
79118;BME280;68523;51.336;-0.846;2023-05-19T15:27:00;101530.0;;;16.78;59.56
79118;BME280;68523;51.336;-0.846;2023-05-19T15:30:00;101520.0;;;17.08;62.00
79118;BME280;68523;51.336;-0.846;2023-05-19T15:33:00;101520.0;;;17.10;58.90
79118;BME280;68523;51.336;-0.846;2023-05-19T15:36:00;101530.0;;;17.23;59.74
79118;BME280;68523;51.336;-0.846;2023-05-19T15:39:00;101520.0;;;17.02;61.34
79118;BME280;68523;51.336;-0.846;2023-05-19T15:42:00;101520.0;;;17.34;59.74
79118;BME280;68523;51.336;-0.846;2023-05-19T15:45:00;101520.0;;;17.27;58.77